createdAt,value
2023-04-04T00:02:08.532Z,62.49
2023-04-04T00:06:12.139Z,62.36
2023-04-04T00:10:15.937Z,61.60
2023-04-04T00:14:19.423Z,62.01
2023-04-04T00:18:22.348Z,62.77
2023-04-04T00:22:26.064Z,62.70
2023-04-04T00:26:29.140Z,63.05
2023-04-04T00:30:32.169Z,64.18
2023-04-04T00:34:36.478Z,63.64
2023-04-04T00:38:39.454Z,62.97
2023-04-04T00:42:42.637Z,63.41
2023-04-04T00:46:46.040Z,63.18
2023-04-04T00:50:49.158Z,64.00
2023-04-04T00:54:52.044Z,64.21
2023-04-04T00:58:56.307Z,64.55
2023-04-04T01:02:59.395Z,64.54
2023-04-04T01:07:03.130Z,65.17
2023-04-04T01:11:06.690Z,65.82
2023-04-04T01:15:09.856Z,65.67
2023-04-04T01:19:22.024Z,66.26
2023-04-04T01:23:32.679Z,65.86
2023-04-04T01:27:36.034Z,66.38
2023-04-04T01:32:00.947Z,67.17
2023-04-04T01:36:03.826Z,67.48
2023-04-04T01:40:21.665Z,69.17
2023-04-04T01:44:25.320Z,69.97
2023-04-04T01:48:28.341Z,69.13
2023-04-04T01:52:31.382Z,66.89
2023-04-04T01:56:35.637Z,67.24
2023-04-04T02:00:38.540Z,68.25
2023-04-04T02:04:41.547Z,69.22
2023-04-04T02:08:44.471Z,70.77
2023-04-04T02:12:47.595Z,71.58
2023-04-04T02:16:51.724Z,71.82
2023-04-04T02:21:17.522Z,72.35
2023-04-04T02:25:22.328Z,72.24
2023-04-04T02:29:26.012Z,72.12
2023-04-04T02:33:29.897Z,71.77
2023-04-04T02:37:32.783Z,71.88
2023-04-04T02:41:35.746Z,72.09
2023-04-04T02:45:38.671Z,72.44
2023-04-04T02:49:41.679Z,72.78
2023-04-04T02:53:45.188Z,73.25
2023-04-04T02:57:52.479Z,73.19
2023-04-04T03:01:56.139Z,73.33
2023-04-04T03:06:00.326Z,73.15
2023-04-04T03:10:03.998Z,73.76
2023-04-04T03:14:07.680Z,74.12
2023-04-04T03:18:10.917Z,74.33
2023-04-04T03:22:13.860Z,75.11
2023-04-04T03:26:17.377Z,75.13
2023-04-04T03:30:21.040Z,75.35
2023-04-04T03:34:24.864Z,75.96
2023-04-04T03:38:27.856Z,76.09
2023-04-04T03:42:34.959Z,76.34
2023-04-04T03:46:38.179Z,76.58
2023-04-04T03:50:41.850Z,77.64
2023-04-04T03:54:46.174Z,78.50
2023-04-04T03:58:49.758Z,78.97
2023-04-04T04:02:53.843Z,79.32
2023-04-04T04:06:57.606Z,79.16
2023-04-04T04:11:08.021Z,79.58
2023-04-04T04:15:12.219Z,80.40
2023-04-04T04:19:16.223Z,80.67
2023-04-04T04:23:19.312Z,81.00
2023-04-04T04:27:25.917Z,80.93
2023-04-04T04:31:31.329Z,80.83
2023-04-04T04:35:40.341Z,81.30
2023-04-04T04:39:45.694Z,81.29
2023-04-04T04:43:49.146Z,80.70
2023-04-04T04:47:52.962Z,80.23
2023-04-04T04:51:56.293Z,79.85
2023-04-04T04:56:00.238Z,79.83
2023-04-04T05:00:04.764Z,79.05
2023-04-04T05:04:09.171Z,79.05
2023-04-04T05:08:13.520Z,77.57
2023-04-04T05:12:16.603Z,77.44
2023-04-04T05:16:20.690Z,77.02
2023-04-04T05:20:24.422Z,75.73
2023-04-04T05:24:28.686Z,76.93
2023-04-04T05:28:31.871Z,76.17
2023-04-04T05:32:35.639Z,74.81
2023-04-04T05:36:39.269Z,74.88
2023-04-04T05:40:43.155Z,75.26
2023-04-04T05:44:46.462Z,74.93
2023-04-04T05:48:52.867Z,75.25
2023-04-04T05:52:56.120Z,75.66
2023-04-04T05:56:59.164Z,75.90
2023-04-04T06:01:07.114Z,73.88
2023-04-04T06:05:10.565Z,73.47
2023-04-04T06:09:13.623Z,72.52
2023-04-04T06:13:16.823Z,72.97
2023-04-04T06:17:20.235Z,72.78
2023-04-04T06:21:23.543Z,72.08
2023-04-04T06:25:27.234Z,72.29
2023-04-04T06:29:31.441Z,72.85
2023-04-04T06:33:34.437Z,70.82
2023-04-04T06:37:37.427Z,69.88
2023-04-04T06:41:40.706Z,68.80
2023-04-04T06:45:44.314Z,69.56
2023-04-04T06:49:47.501Z,68.40
2023-04-04T06:53:50.924Z,68.58
2023-04-04T06:57:54.433Z,67.89
2023-04-04T07:01:58.134Z,67.13
2023-04-04T07:06:05.610Z,66.06
2023-04-04T07:10:09.506Z,66.96
2023-04-04T07:14:12.746Z,65.35
2023-04-04T07:18:16.693Z,63.41
2023-04-04T07:22:20.389Z,63.38
2023-04-04T07:26:23.442Z,64.22
2023-04-04T07:30:29.130Z,62.51
2023-04-04T07:34:32.872Z,62.16
2023-04-04T07:38:36.328Z,58.85
2023-04-04T07:42:47.420Z,57.47
2023-04-04T07:47:02.395Z,57.65
2023-04-04T07:51:10.361Z,56.55
2023-04-04T07:55:15.006Z,56.60
2023-04-04T07:59:21.610Z,56.21
2023-04-04T08:03:25.860Z,55.95
2023-04-04T08:07:30.418Z,55.70
2023-04-04T08:11:33.565Z,54.36
2023-04-04T08:15:37.911Z,56.15
2023-04-04T08:19:41.477Z,55.31
2023-04-04T08:23:44.394Z,55.03
2023-04-04T08:27:48.142Z,54.95
2023-04-04T08:31:54.121Z,54.25
2023-04-04T08:35:59.810Z,56.25
2023-04-04T08:40:06.846Z,54.46
2023-04-04T08:44:17.315Z,55.63
2023-04-04T08:48:24.133Z,53.54
2023-04-04T08:52:28.534Z,54.64
2023-04-04T08:56:33.312Z,53.71
2023-04-04T09:00:40.682Z,56.51
2023-04-04T09:04:54.598Z,56.25
2023-04-04T09:09:07.488Z,55.92
2023-04-04T09:13:16.091Z,56.67
2023-04-04T09:17:21.044Z,54.61
2023-04-04T09:21:24.252Z,53.82
2023-04-04T09:25:27.578Z,55.11
2023-04-04T09:29:30.761Z,55.66
2023-04-04T09:33:34.811Z,54.68
2023-04-04T09:37:40.459Z,54.02
2023-04-04T09:41:47.724Z,54.75
2023-04-04T09:45:52.274Z,55.16
2023-04-04T09:50:00.594Z,57.03
2023-04-04T09:54:04.287Z,56.29
2023-04-04T09:58:24.607Z,56.21
2023-04-04T10:02:30.916Z,55.62
2023-04-04T10:06:37.535Z,57.70
2023-04-04T10:11:09.840Z,58.27
2023-04-04T10:15:16.994Z,59.81
2023-04-04T10:19:20.648Z,58.09
2023-04-04T10:23:26.678Z,58.66
2023-04-04T10:27:30.223Z,61.57
2023-04-04T10:31:38.418Z,62.21
2023-04-04T10:35:45.426Z,62.15
2023-04-04T10:40:20.808Z,62.96
2023-04-04T10:44:25.687Z,57.00
2023-04-04T10:48:29.685Z,57.05
2023-04-04T10:52:33.926Z,58.37
2023-04-04T10:56:37.842Z,56.31
2023-04-04T11:00:55.370Z,56.22
2023-04-04T11:05:11.853Z,54.75
2023-04-04T11:09:15.397Z,55.87
2023-04-04T11:13:22.872Z,55.76
2023-04-04T11:18:04.283Z,56.23
2023-04-04T11:22:16.072Z,57.68
2023-04-04T11:26:35.719Z,58.59
2023-04-04T11:30:48.049Z,57.76
2023-04-04T11:34:51.976Z,58.09
2023-04-04T11:38:58.699Z,58.16
2023-04-04T11:43:08.237Z,58.34
2023-04-04T11:47:13.636Z,57.90
2023-04-04T11:51:18.940Z,56.19
2023-04-04T11:55:23.137Z,56.25
2023-04-04T11:59:26.606Z,54.53
2023-04-04T12:03:30.208Z,55.03
2023-04-04T12:07:35.705Z,56.48
2023-04-04T12:11:39.865Z,57.76
2023-04-04T12:15:44.159Z,58.31
2023-04-04T12:19:47.721Z,59.64
2023-04-04T12:23:51.092Z,59.10
2023-04-04T12:27:55.363Z,58.09
2023-04-04T12:31:58.930Z,57.57
2023-04-04T12:36:06.754Z,57.04
2023-04-04T12:40:11.338Z,56.85
2023-04-04T12:44:36.076Z,55.83
2023-04-04T12:48:40.099Z,57.02
2023-04-04T12:52:43.017Z,54.35
2023-04-04T12:56:46.756Z,55.32
2023-04-04T13:00:55.298Z,54.83
2023-04-04T13:04:58.892Z,54.22
2023-04-04T13:09:01.836Z,54.98
2023-04-04T13:13:05.998Z,55.95
2023-04-04T13:17:09.581Z,54.03
2023-04-04T13:21:13.301Z,53.65
2023-04-04T13:25:16.276Z,54.29
2023-04-04T13:29:19.425Z,54.13
2023-04-04T13:33:22.503Z,55.98
2023-04-04T13:37:26.676Z,54.59
2023-04-04T13:41:30.014Z,54.55
2023-04-04T13:45:34.420Z,54.46
2023-04-04T13:49:37.469Z,53.47
2023-04-04T13:53:41.598Z,54.69
2023-04-04T13:57:44.823Z,53.76
2023-04-04T14:01:47.781Z,52.83
2023-04-04T14:05:50.976Z,53.03
2023-04-04T14:09:54.189Z,54.51
2023-04-04T14:13:58.046Z,52.37
2023-04-04T14:18:01.280Z,51.81
2023-04-04T14:22:05.225Z,50.63
2023-04-04T14:26:08.883Z,53.06
2023-04-04T14:30:12.565Z,52.84
2023-04-04T14:34:15.581Z,53.36
2023-04-04T14:38:19.081Z,52.65
2023-04-04T14:42:22.183Z,53.24
2023-04-04T14:46:26.241Z,51.95
2023-04-04T14:50:29.393Z,54.12
2023-04-04T14:54:32.616Z,52.07
2023-04-04T14:58:36.112Z,53.85
2023-04-04T15:02:39.297Z,54.93
2023-04-04T15:06:43.390Z,53.89
2023-04-04T15:10:46.561Z,55.27
2023-04-04T15:14:49.556Z,55.83
2023-04-04T15:18:52.558Z,56.54
2023-04-04T15:22:55.794Z,53.43
2023-04-04T15:26:58.813Z,53.68
2023-04-04T15:31:03.126Z,51.72
2023-04-04T15:35:07.361Z,50.92
2023-04-04T15:39:11.413Z,50.87
2023-04-04T15:43:14.774Z,50.55
2023-04-04T15:47:18.089Z,50.81
2023-04-04T15:51:21.522Z,50.46
2023-04-04T15:55:24.601Z,50.77
2023-04-04T15:59:27.817Z,52.25
2023-04-04T16:03:30.917Z,53.70
2023-04-04T16:07:34.286Z,53.74
2023-04-04T16:11:38.030Z,52.79
2023-04-04T16:15:41.255Z,51.56
2023-04-04T16:19:44.274Z,53.34
2023-04-04T16:23:47.473Z,55.35
2023-04-04T16:27:50.629Z,55.46
2023-04-04T16:31:53.611Z,55.73
2023-04-04T16:35:58.241Z,54.99
2023-04-04T16:40:02.155Z,56.14
2023-04-04T16:44:05.603Z,56.96
2023-04-04T16:48:09.077Z,56.42
2023-04-04T16:52:12.190Z,56.99
2023-04-04T16:56:16.083Z,58.06
2023-04-04T17:00:20.027Z,59.15
2023-04-04T17:04:23.165Z,59.78
2023-04-04T17:08:26.941Z,60.36
2023-04-04T17:12:29.974Z,61.41
2023-04-04T17:16:33.456Z,61.68
2023-04-04T17:20:38.202Z,61.39
2023-04-04T17:24:41.503Z,62.06
2023-04-04T17:28:44.646Z,62.13
2023-04-04T17:32:49.058Z,61.63
2023-04-04T17:36:53.083Z,62.42
2023-04-04T17:40:56.283Z,62.61
2023-04-04T17:44:59.964Z,61.82
2023-04-04T17:49:03.435Z,61.86
2023-04-04T17:53:07.460Z,62.90
2023-04-04T17:57:10.917Z,62.49
2023-04-04T18:01:14.112Z,62.44
2023-04-04T18:05:18.183Z,62.65
2023-04-04T18:09:22.755Z,62.92
2023-04-04T18:13:38.092Z,62.71
2023-04-04T18:17:48.078Z,63.43
2023-04-04T18:22:18.374Z,64.75
2023-04-04T18:26:40.543Z,67.54
2023-04-04T18:30:55.337Z,69.17
2023-04-04T18:34:59.122Z,69.78
2023-04-04T18:39:16.474Z,72.51
2023-04-04T18:48:01.695Z,72.00
2023-04-04T18:52:05.297Z,73.18
2023-04-04T18:56:09.854Z,73.74
2023-04-04T19:00:16.378Z,73.86
2023-04-04T19:04:22.144Z,74.40
2023-04-04T19:08:29.630Z,74.87
2023-04-04T19:12:34.235Z,73.98
2023-04-04T19:16:38.008Z,73.59
2023-04-04T19:20:43.591Z,73.90
2023-04-04T19:24:46.827Z,75.16
2023-04-04T19:28:50.734Z,75.57
2023-04-04T19:32:54.520Z,75.17
2023-04-04T19:36:57.526Z,75.63
2023-04-04T19:41:04.772Z,77.08
2023-04-04T19:45:13.234Z,77.92
2023-04-04T19:49:41.987Z,77.49
2023-04-04T19:54:08.723Z,77.74
2023-04-04T19:58:42.756Z,77.68
2023-04-04T20:02:50.109Z,77.48
2023-04-04T20:06:59.044Z,77.06
2023-04-04T20:11:07.305Z,76.88
2023-04-04T20:15:38.330Z,76.29
2023-04-04T20:19:48.476Z,77.63
2023-04-04T20:23:58.563Z,78.49
2023-04-04T20:28:03.092Z,78.66
2023-04-04T20:32:45.959Z,78.50
2023-04-04T20:36:56.536Z,79.23
2023-04-04T20:41:14.984Z,79.60
2023-04-04T20:45:57.444Z,80.13
2023-04-04T20:50:17.564Z,80.43
2023-04-04T20:54:23.864Z,80.34
2023-04-04T20:58:29.482Z,81.46
2023-04-04T21:02:34.398Z,80.75
2023-04-04T21:06:40.140Z,80.73
2023-04-04T21:10:48.908Z,81.16
2023-04-04T21:14:52.250Z,82.05
2023-04-04T21:19:00.484Z,81.61
2023-04-04T21:23:06.989Z,81.51
2023-04-04T21:27:34.036Z,81.32
2023-04-04T21:31:43.364Z,81.24
2023-04-04T21:35:50.717Z,81.21
2023-04-04T21:39:57.444Z,81.38
2023-04-04T21:44:06.771Z,81.07
2023-04-04T21:48:09.866Z,80.82
2023-04-04T21:52:13.117Z,81.59
2023-04-04T21:56:17.653Z,83.08
2023-04-04T22:00:20.970Z,85.63
2023-04-04T22:04:24.312Z,87.07
2023-04-04T22:08:27.877Z,87.76
2023-04-04T22:12:33.258Z,88.13
2023-04-04T22:16:39.635Z,88.04
2023-04-04T22:20:49.022Z,88.19
2023-04-04T22:24:52.286Z,88.96
2023-04-04T22:28:59.510Z,88.64
2023-04-04T22:33:05.233Z,88.06
2023-04-04T22:37:21.641Z,89.24
2023-04-04T22:41:29.467Z,90.10
2023-04-04T22:45:33.732Z,89.51
2023-04-04T22:49:48.426Z,89.19
2023-04-04T22:53:51.648Z,88.65
2023-04-04T22:57:54.886Z,88.15
2023-04-04T23:01:58.118Z,88.23
2023-04-04T23:06:01.350Z,87.99
2023-04-04T23:10:06.801Z,87.71
2023-04-04T23:14:14.755Z,88.48
2023-04-04T23:18:18.770Z,88.69
2023-04-04T23:22:22.154Z,88.70
2023-04-04T23:26:25.589Z,88.86
2023-04-04T23:30:29.118Z,89.26
2023-04-04T23:34:32.146Z,88.79
2023-04-04T23:38:35.935Z,88.28
2023-04-04T23:42:39.010Z,87.71
2023-04-04T23:46:42.060Z,87.33
2023-04-04T23:50:50.177Z,87.57
2023-04-04T23:54:53.145Z,88.24
2023-04-04T23:58:56.142Z,88.37
